createdAt,value
2023-03-06T00:01:04.520Z,99760.69
2023-03-06T00:03:33.644Z,99754.63
2023-03-06T00:06:02.085Z,99756.59
2023-03-06T00:08:47.065Z,99753.03
2023-03-06T00:11:15.532Z,99746.13
2023-03-06T00:13:43.402Z,99747.75
2023-03-06T00:16:11.728Z,99741.56
2023-03-06T00:18:39.482Z,99742.59
2023-03-06T00:21:08.734Z,99745.25
2023-03-06T00:23:36.438Z,99748.88
2023-03-06T00:26:08.495Z,99748.94
2023-03-06T00:28:37.312Z,99741.84
2023-03-06T00:31:05.434Z,99740.16
2023-03-06T00:33:33.364Z,99744.59
2023-03-06T00:36:03.605Z,99750.75
2023-03-06T00:38:33.469Z,99739.28
2023-03-06T00:41:08.308Z,99733.97
2023-03-06T00:43:36.254Z,99730.59
2023-03-06T00:46:05.610Z,99724.38
2023-03-06T00:48:34.545Z,99720.81
2023-03-06T00:51:02.357Z,99722.59
2023-03-06T00:53:30.764Z,99725.31
2023-03-06T00:55:58.416Z,99710.31
2023-03-06T00:58:27.219Z,99714.72
2023-03-06T01:00:57.318Z,99707.66
2023-03-06T01:03:25.044Z,99708.72
2023-03-06T01:05:53.525Z,99711.34
2023-03-06T01:08:21.244Z,99708.72
2023-03-06T01:10:49.037Z,99698.31
2023-03-06T01:13:17.308Z,99703.50
2023-03-06T01:15:45.429Z,99707.88
2023-03-06T01:18:13.133Z,99703.50
2023-03-06T01:20:41.032Z,99696.59
2023-03-06T01:23:08.905Z,99681.63
2023-03-06T01:25:36.580Z,99690.50
2023-03-06T01:28:04.418Z,99686.16
2023-03-06T01:30:32.148Z,99679.88
2023-03-06T01:32:59.937Z,99676.41
2023-03-06T01:35:27.644Z,99672.91
2023-03-06T01:37:55.286Z,99673.81
2023-03-06T01:40:22.992Z,99661.59
2023-03-06T01:42:50.931Z,99654.53
2023-03-06T01:45:18.497Z,99655.34
2023-03-06T01:47:46.175Z,99649.22
2023-03-06T01:50:14.155Z,99638.59
2023-03-06T01:52:57.553Z,99648.13
2023-03-06T01:55:33.086Z,99635.94
2023-03-06T01:58:06.274Z,99638.44
2023-03-06T02:00:34.480Z,99625.34
2023-03-06T02:03:26.405Z,99634.00
2023-03-06T02:05:54.927Z,99622.81
2023-03-06T02:08:24.227Z,99625.44
2023-03-06T02:11:18.007Z,99631.53
2023-03-06T02:13:47.692Z,99615.81
2023-03-06T02:16:17.550Z,99609.78
2023-03-06T02:18:47.176Z,99619.47
2023-03-06T02:21:35.334Z,99621.13
2023-03-06T02:24:37.321Z,99615.88
2023-03-06T02:27:09.831Z,99616.06
2023-03-06T02:29:38.214Z,99608.97
2023-03-06T02:32:06.494Z,99603.63
2023-03-06T02:34:40.118Z,99607.88
2023-03-06T02:37:10.677Z,99602.63
2023-03-06T02:39:44.826Z,99592.16
2023-03-06T02:42:20.398Z,99595.69
2023-03-06T02:44:49.327Z,99593.06
2023-03-06T02:47:17.040Z,99586.91
2023-03-06T02:49:45.107Z,99593.13
2023-03-06T02:52:12.933Z,99583.50
2023-03-06T02:54:40.915Z,99581.75
2023-03-06T02:57:09.118Z,99581.75
2023-03-06T02:59:37.506Z,99585.28
2023-03-06T03:02:06.824Z,99578.38
2023-03-06T03:04:35.322Z,99580.97
2023-03-06T03:07:03.943Z,99572.16
2023-03-06T03:09:36.871Z,99573.94
2023-03-06T03:12:07.400Z,99573.97
2023-03-06T03:14:35.569Z,99581.81
2023-03-06T03:17:04.357Z,99575.66
2023-03-06T03:19:32.293Z,99575.72
2023-03-06T03:22:00.167Z,99571.28
2023-03-06T03:24:27.991Z,99566.84
2023-03-06T03:26:56.166Z,99560.69
2023-03-06T03:29:26.372Z,99577.34
2023-03-06T03:31:55.084Z,99566.00
2023-03-06T03:34:26.080Z,99563.28
2023-03-06T03:36:54.593Z,99557.97
2023-03-06T03:39:22.809Z,99563.22
2023-03-06T03:41:50.750Z,99555.25
2023-03-06T03:44:18.483Z,99547.31
2023-03-06T03:46:46.796Z,99557.91
2023-03-06T03:49:20.325Z,99550.88
2023-03-06T03:51:48.923Z,99551.75
2023-03-06T03:54:24.217Z,99549.97
2023-03-06T03:56:54.334Z,99547.38
2023-03-06T03:59:27.683Z,99541.16
2023-03-06T04:02:17.587Z,99549.97
2023-03-06T04:04:59.703Z,99538.59
2023-03-06T04:07:28.127Z,99542.03
2023-03-06T04:09:56.796Z,99533.19
2023-03-06T04:12:25.469Z,99531.28
2023-03-06T04:14:53.935Z,99535.66
2023-03-06T04:17:22.630Z,99517.28
2023-03-06T04:19:51.232Z,99529.47
2023-03-06T04:22:19.615Z,99517.97
2023-03-06T04:24:49.809Z,99517.09
2023-03-06T04:27:18.743Z,99511.81
2023-03-06T04:29:46.891Z,99517.19
2023-03-06T04:32:15.319Z,99512.75
2023-03-06T04:34:43.333Z,99508.38
2023-03-06T04:37:24.264Z,99508.22
2023-03-06T04:39:53.541Z,99502.22
2023-03-06T04:42:21.561Z,99500.25
2023-03-06T04:44:49.508Z,99509.00
2023-03-06T04:47:19.140Z,99509.88
2023-03-06T04:49:47.839Z,99504.69
2023-03-06T04:52:15.620Z,99504.69
2023-03-06T04:54:43.345Z,99491.63
2023-03-06T04:57:11.416Z,99503.84
2023-03-06T04:59:39.349Z,99495.16
2023-03-06T05:02:07.139Z,99490.63
2023-03-06T05:04:35.024Z,99487.13
2023-03-06T05:07:03.004Z,99478.31
2023-03-06T05:09:30.770Z,99490.63
2023-03-06T05:11:58.528Z,99494.28
2023-03-06T05:14:29.276Z,99488.28
2023-03-06T05:16:57.513Z,99492.97
2023-03-06T05:19:25.315Z,99495.69
2023-03-06T05:21:54.205Z,99483.31
2023-03-06T05:24:22.110Z,99490.41
2023-03-06T05:26:49.917Z,99487.63
2023-03-06T05:29:17.748Z,99493.84
2023-03-06T05:31:46.126Z,99490.41
2023-03-06T05:34:16.775Z,99483.41
2023-03-06T05:36:45.545Z,99483.41
2023-03-06T05:39:13.865Z,99486.91
2023-03-06T05:41:41.747Z,99481.69
2023-03-06T05:44:09.751Z,99476.47
2023-03-06T05:46:38.347Z,99483.38
2023-03-06T05:49:06.222Z,99483.41
2023-03-06T05:51:36.276Z,99490.47
2023-03-06T05:54:04.285Z,99479.97
2023-03-06T05:56:32.096Z,99474.78
2023-03-06T05:58:59.805Z,99474.06
2023-03-06T06:01:28.514Z,99482.00
2023-03-06T06:03:56.250Z,99474.28
2023-03-06T06:06:24.047Z,99482.19
2023-03-06T06:08:52.127Z,99483.06
2023-03-06T06:11:20.850Z,99486.66
2023-03-06T06:13:52.146Z,99484.06
2023-03-06T06:16:19.938Z,99485.00
2023-03-06T06:18:47.876Z,99485.84
2023-03-06T06:21:17.142Z,99485.78
2023-03-06T06:23:45.079Z,99487.50
2023-03-06T06:26:12.979Z,99484.94
2023-03-06T06:28:40.839Z,99484.81
2023-03-06T06:31:13.504Z,99497.00
2023-03-06T06:33:42.157Z,99493.50
2023-03-06T06:36:20.856Z,99495.19
2023-03-06T06:38:51.066Z,99499.84
2023-03-06T06:41:46.958Z,99504.25
2023-03-06T06:44:14.472Z,99502.50
2023-03-06T06:49:35.447Z,99499.84
2023-03-06T06:52:07.435Z,99508.59
2023-03-06T06:54:35.374Z,99513.97
2023-03-06T06:57:03.400Z,99519.09
2023-03-06T06:59:31.349Z,99506.78
2023-03-06T07:02:01.562Z,99514.75
2023-03-06T07:04:29.991Z,99516.53
2023-03-06T07:06:59.440Z,99520.78
2023-03-06T07:09:27.550Z,99513.78
2023-03-06T07:11:55.255Z,99520.91
2023-03-06T07:14:23.088Z,99523.44
2023-03-06T07:16:50.865Z,99533.97
2023-03-06T07:19:18.628Z,99521.66
2023-03-06T07:21:46.327Z,99512.00
2023-03-06T07:24:16.074Z,99532.06
2023-03-06T07:26:48.256Z,99525.00
2023-03-06T07:29:18.052Z,99526.03
2023-03-06T07:31:50.130Z,99517.22
2023-03-06T07:34:22.491Z,99521.47
2023-03-06T07:36:50.904Z,99517.97
2023-03-06T07:39:18.787Z,99530.28
2023-03-06T07:41:46.656Z,99517.16
2023-03-06T07:44:14.403Z,99522.28
2023-03-06T07:46:42.502Z,99525.69
2023-03-06T07:49:10.474Z,99521.25
2023-03-06T07:51:38.624Z,99525.44
2023-03-06T07:54:06.608Z,99514.91
2023-03-06T07:56:36.602Z,99521.84
2023-03-06T07:59:05.924Z,99521.72
2023-03-06T08:01:33.870Z,99521.69
2023-03-06T08:04:01.957Z,99529.56
2023-03-06T08:06:30.318Z,99531.28
2023-03-06T08:08:58.446Z,99527.84
2023-03-06T08:11:29.908Z,99528.78
2023-03-06T08:14:01.320Z,99536.72
2023-03-06T08:16:31.388Z,99533.22
2023-03-06T08:18:59.645Z,99531.50
2023-03-06T08:21:30.623Z,99537.59
2023-03-06T08:23:58.733Z,99534.22
2023-03-06T08:26:30.167Z,99534.06
2023-03-06T08:29:01.165Z,99530.50
2023-03-06T08:31:35.789Z,99540.16
2023-03-06T08:34:07.998Z,99540.09
2023-03-06T08:36:36.501Z,99536.59
2023-03-06T08:39:05.754Z,99538.44
2023-03-06T08:41:34.351Z,99544.59
2023-03-06T08:44:02.869Z,99529.72
2023-03-06T08:46:32.469Z,99540.06
2023-03-06T08:49:00.726Z,99544.38
2023-03-06T08:51:30.228Z,99547.88
2023-03-06T08:53:58.707Z,99547.00
2023-03-06T08:56:29.441Z,99546.09
2023-03-06T08:59:02.472Z,99543.56
2023-03-06T09:01:35.097Z,99560.25
2023-03-06T09:04:14.207Z,99558.28
2023-03-06T09:06:44.102Z,99553.84
2023-03-06T09:09:13.003Z,99548.34
2023-03-06T09:11:40.811Z,99556.06
2023-03-06T09:14:08.557Z,99555.91
2023-03-06T09:16:36.400Z,99553.22
2023-03-06T09:19:07.013Z,99553.69
2023-03-06T09:21:38.632Z,99557.97
2023-03-06T09:24:06.741Z,99554.47
2023-03-06T09:26:51.584Z,99550.94
2023-03-06T09:29:19.624Z,99565.81
2023-03-06T09:31:47.883Z,99562.13
2023-03-06T09:34:15.613Z,99555.09
2023-03-06T09:36:56.498Z,99563.75
2023-03-06T09:39:26.484Z,99561.09
2023-03-06T09:41:58.276Z,99564.66
2023-03-06T09:44:30.757Z,99556.47
2023-03-06T09:47:21.205Z,99568.00
2023-03-06T09:50:16.632Z,99562.03
2023-03-06T09:52:47.082Z,99560.25
2023-03-06T09:55:40.260Z,99561.94
2023-03-06T09:58:27.136Z,99565.16
2023-03-06T10:01:16.362Z,99564.34
2023-03-06T10:04:08.447Z,99565.97
2023-03-06T10:06:51.727Z,99566.63
2023-03-06T10:09:41.385Z,99562.97
2023-03-06T10:12:26.781Z,99566.47
2023-03-06T10:15:17.871Z,99567.13
2023-03-06T10:17:46.145Z,99567.13
2023-03-06T10:20:21.408Z,99564.91
2023-03-06T10:23:25.590Z,99571.44
2023-03-06T10:26:15.706Z,99572.91
2023-03-06T10:29:28.599Z,99570.91
2023-03-06T10:32:12.470Z,99565.19
2023-03-06T10:34:42.095Z,99563.50
2023-03-06T10:37:22.574Z,99557.88
2023-03-06T10:40:03.984Z,99561.91
2023-03-06T10:42:36.502Z,99560.94
2023-03-06T10:45:12.325Z,99557.94
2023-03-06T10:47:40.408Z,99544.72
2023-03-06T10:50:28.124Z,99552.25
2023-03-06T10:53:07.474Z,99547.69
2023-03-06T10:55:37.807Z,99545.59
2023-03-06T10:58:35.347Z,99543.75
2023-03-06T11:01:21.672Z,99548.06
2023-03-06T11:03:50.185Z,99556.84
2023-03-06T11:06:35.782Z,99551.44
2023-03-06T11:09:26.900Z,99557.63
2023-03-06T11:12:19.672Z,99554.03
2023-03-06T11:14:47.530Z,99543.59
2023-03-06T11:17:30.893Z,99543.28
2023-03-06T11:20:22.462Z,99553.03
2023-03-06T11:22:58.178Z,99538.16
2023-03-06T11:25:40.653Z,99538.09
2023-03-06T11:28:22.672Z,99538.09
2023-03-06T11:31:00.665Z,99533.72
2023-03-06T11:33:58.833Z,99533.78
2023-03-06T11:36:49.911Z,99531.19
2023-03-06T11:39:58.278Z,99524.34
2023-03-06T11:43:02.007Z,99521.91
2023-03-06T11:45:46.096Z,99525.28
2023-03-06T11:48:13.792Z,99530.47
2023-03-06T11:50:52.590Z,99531.25
2023-03-06T11:53:34.863Z,99520.63
2023-03-06T11:56:19.751Z,99523.28
2023-03-06T11:59:50.803Z,99507.78
2023-03-06T12:02:39.276Z,99514.88
2023-03-06T12:05:36.350Z,99507.50
2023-03-06T12:08:25.133Z,99509.03
2023-03-06T12:11:04.205Z,99494.88
2023-03-06T12:14:22.516Z,99504.06
2023-03-06T12:17:44.313Z,99490.72
2023-03-06T12:20:42.836Z,99491.56
2023-03-06T12:23:47.721Z,99491.66
2023-03-06T12:26:45.319Z,99482.81
2023-03-06T12:29:49.900Z,99475.06
2023-03-06T12:33:01.017Z,99487.38
2023-03-06T12:35:58.357Z,99479.84
2023-03-06T12:39:15.837Z,99477.56
2023-03-06T12:42:22.680Z,99476.19
2023-03-06T12:45:15.642Z,99465.16
2023-03-06T12:47:47.363Z,99476.63
2023-03-06T12:50:28.089Z,99478.28
2023-03-06T12:53:04.239Z,99470.28
2023-03-06T12:55:45.215Z,99474.84
2023-03-06T12:58:29.792Z,99475.13
2023-03-06T13:02:01.653Z,99480.25
2023-03-06T13:05:09.937Z,99480.47
2023-03-06T13:07:40.092Z,99470.81
2023-03-06T13:10:27.551Z,99470.50
2023-03-06T13:13:03.717Z,99468.56
2023-03-06T13:16:13.357Z,99468.09
2023-03-06T13:18:42.222Z,99460.84
2023-03-06T13:21:59.815Z,99460.72
2023-03-06T13:24:34.633Z,99457.47
2023-03-06T13:27:32.734Z,99454.84
2023-03-06T13:30:21.086Z,99459.69
2023-03-06T13:32:54.648Z,99456.41
2023-03-06T13:35:52.671Z,99449.13
2023-03-06T13:38:52.597Z,99456.09
2023-03-06T13:41:23.135Z,99457.69
2023-03-06T13:44:23.410Z,99446.88
2023-03-06T13:47:00.571Z,99456.38
2023-03-06T13:49:30.020Z,99443.19
2023-03-06T13:52:19.664Z,99443.00
2023-03-06T13:55:23.410Z,99450.00
2023-03-06T13:58:16.374Z,99437.97
2023-03-06T14:01:31.443Z,99447.00
2023-03-06T14:04:25.840Z,99443.59
2023-03-06T14:07:24.630Z,99443.16
2023-03-06T14:10:07.794Z,99439.78
2023-03-06T14:12:52.346Z,99438.13
2023-03-06T14:15:49.868Z,99433.00
2023-03-06T14:18:36.543Z,99435.25
2023-03-06T14:21:13.221Z,99423.59
2023-03-06T14:23:45.001Z,99433.94
2023-03-06T14:26:17.658Z,99421.63
2023-03-06T14:29:01.599Z,99427.84
2023-03-06T14:31:32.883Z,99429.84
2023-03-06T14:34:15.915Z,99426.38
2023-03-06T14:36:48.560Z,99422.13
2023-03-06T14:39:35.550Z,99426.38
2023-03-06T14:42:22.005Z,99417.47
2023-03-06T14:45:05.926Z,99427.88
2023-03-06T14:47:36.532Z,99423.38
2023-03-06T14:50:36.433Z,99424.25
2023-03-06T14:53:32.047Z,99421.38
2023-03-06T14:56:20.438Z,99419.22
2023-03-06T14:59:03.674Z,99427.63
2023-03-06T15:01:42.023Z,99420.13
2023-03-06T15:04:28.676Z,99425.25
2023-03-06T15:06:58.260Z,99413.84
2023-03-06T15:09:31.564Z,99419.06
2023-03-06T15:12:06.989Z,99426.53
2023-03-06T15:14:48.272Z,99428.97
2023-03-06T15:17:18.991Z,99429.06
2023-03-06T15:19:56.066Z,99422.03
2023-03-06T15:22:44.061Z,99414.84
2023-03-06T15:25:29.009Z,99418.31
2023-03-06T15:28:20.727Z,99426.28
2023-03-06T15:31:19.068Z,99426.41
2023-03-06T15:34:11.732Z,99421.88
2023-03-06T15:36:47.245Z,99429.84
2023-03-06T15:39:40.538Z,99418.44
2023-03-06T15:42:18.734Z,99417.41
2023-03-06T15:44:56.073Z,99421.72
2023-03-06T15:47:24.596Z,99415.56
2023-03-06T15:49:53.390Z,99413.00
2023-03-06T15:52:22.698Z,99410.25
2023-03-06T15:55:13.257Z,99416.50
2023-03-06T15:58:03.417Z,99420.22
2023-03-06T16:00:39.565Z,99419.50
2023-03-06T16:03:10.393Z,99424.72
2023-03-06T16:05:41.135Z,99422.25
2023-03-06T16:08:10.958Z,99420.66
2023-03-06T16:10:42.609Z,99418.84
2023-03-06T16:13:28.085Z,99432.66
2023-03-06T16:15:56.302Z,99429.34
2023-03-06T16:18:25.036Z,99424.25
2023-03-06T16:20:53.542Z,99427.91
2023-03-06T16:23:23.444Z,99427.97
2023-03-06T16:25:51.430Z,99432.44
2023-03-06T16:28:19.236Z,99431.63
2023-03-06T16:30:47.169Z,99430.06
2023-03-06T16:33:15.131Z,99436.22
2023-03-06T16:35:46.344Z,99441.78
2023-03-06T16:38:15.670Z,99440.81
2023-03-06T16:40:45.676Z,99442.66
2023-03-06T16:43:17.126Z,99433.19
2023-03-06T16:45:46.399Z,99437.78
2023-03-06T16:48:16.759Z,99453.75
2023-03-06T16:50:45.178Z,99445.16
2023-03-06T16:53:15.024Z,99455.91
2023-03-06T16:55:42.963Z,99446.41
2023-03-06T16:58:10.941Z,99451.66
2023-03-06T17:00:38.856Z,99450.00
2023-03-06T17:03:07.719Z,99458.09
2023-03-06T17:05:37.083Z,99456.31
2023-03-06T17:08:05.250Z,99457.28
2023-03-06T17:10:33.087Z,99465.31
2023-03-06T17:13:00.965Z,99468.09
2023-03-06T17:15:28.806Z,99462.78
2023-03-06T17:17:58.447Z,99476.06
2023-03-06T17:20:26.257Z,99465.63
2023-03-06T17:22:56.026Z,99465.78
2023-03-06T17:25:24.162Z,99466.28
2023-03-06T17:27:51.872Z,99477.03
2023-03-06T17:30:19.823Z,99459.56
2023-03-06T17:32:47.569Z,99469.22
2023-03-06T17:35:15.415Z,99472.78
2023-03-06T17:37:43.437Z,99478.13
2023-03-06T17:40:12.060Z,99473.91
2023-03-06T17:42:39.945Z,99469.72
2023-03-06T17:45:09.531Z,99480.34
2023-03-06T17:47:39.743Z,99481.38
2023-03-06T17:50:10.644Z,99485.75
2023-03-06T17:52:39.178Z,99484.25
2023-03-06T17:55:07.785Z,99489.69
2023-03-06T17:57:36.025Z,99483.59
2023-03-06T18:00:05.834Z,99484.66
2023-03-06T18:02:45.363Z,99476.88
2023-03-06T18:05:13.773Z,99470.91
2023-03-06T18:07:41.564Z,99480.41
2023-03-06T18:10:10.121Z,99482.31
2023-03-06T18:12:38.329Z,99487.66
2023-03-06T18:15:08.504Z,99493.84
2023-03-06T18:17:36.546Z,99484.16
2023-03-06T18:20:05.375Z,99479.72
2023-03-06T18:22:34.172Z,99485.75
2023-03-06T18:25:02.614Z,99484.16
2023-03-06T18:27:34.250Z,99488.53
2023-03-06T18:30:04.961Z,99494.69
2023-03-06T18:32:32.892Z,99496.56
2023-03-06T18:35:01.728Z,99497.41
2023-03-06T18:37:29.493Z,99496.34
2023-03-06T18:39:59.856Z,99498.19
2023-03-06T18:42:27.785Z,99485.06
2023-03-06T18:44:58.116Z,99495.44
2023-03-06T18:47:25.879Z,99486.75
2023-03-06T18:49:53.620Z,99491.19
2023-03-06T18:52:21.354Z,99488.53
2023-03-06T18:54:50.466Z,99486.91
2023-03-06T18:57:18.248Z,99468.63
2023-03-06T18:59:46.073Z,99482.66
2023-03-06T19:02:13.893Z,99484.63
2023-03-06T19:04:41.667Z,99486.50
2023-03-06T19:07:09.965Z,99492.59
2023-03-06T19:09:38.860Z,99485.63
2023-03-06T19:12:06.946Z,99487.34
2023-03-06T19:14:36.236Z,99475.06
2023-03-06T19:17:04.244Z,99475.03
2023-03-06T19:19:32.229Z,99481.88
2023-03-06T19:22:00.986Z,99478.28
2023-03-06T19:24:28.785Z,99484.44
2023-03-06T19:26:56.629Z,99483.53
2023-03-06T19:29:24.356Z,99476.44
2023-03-06T19:31:52.317Z,99472.06
2023-03-06T19:34:20.423Z,99480.84
2023-03-06T19:36:50.617Z,99482.66
2023-03-06T19:39:18.541Z,99473.97
2023-03-06T19:41:47.792Z,99474.84
2023-03-06T19:44:16.354Z,99471.38
2023-03-06T19:46:44.130Z,99474.91
2023-03-06T19:49:16.886Z,99466.91
2023-03-06T19:51:45.190Z,99463.31
2023-03-06T19:54:14.084Z,99466.66
2023-03-06T19:56:42.024Z,99464.03
2023-03-06T19:59:10.414Z,99463.94
2023-03-06T20:01:38.614Z,99462.03
2023-03-06T20:04:07.630Z,99467.19
2023-03-06T20:06:38.682Z,99453.94
2023-03-06T20:09:09.258Z,99457.22
2023-03-06T20:11:38.937Z,99452.03
2023-03-06T20:14:09.193Z,99441.44
2023-03-06T20:16:37.251Z,99443.22
2023-03-06T20:19:06.867Z,99439.78
2023-03-06T20:21:37.652Z,99437.13
2023-03-06T20:24:07.144Z,99449.56
2023-03-06T20:26:36.730Z,99447.06
2023-03-06T20:29:05.059Z,99438.25
2023-03-06T20:31:33.023Z,99439.31
2023-03-06T20:34:00.891Z,99444.53
2023-03-06T20:36:40.398Z,99437.38
2023-03-06T20:39:13.850Z,99427.88
2023-03-06T20:41:41.671Z,99436.69
2023-03-06T20:44:13.785Z,99440.19
2023-03-06T20:46:41.991Z,99431.47
2023-03-06T20:49:12.555Z,99423.59
2023-03-06T20:51:44.731Z,99434.13
2023-03-06T20:54:16.032Z,99426.41
2023-03-06T20:56:47.821Z,99430.72
2023-03-06T20:59:17.308Z,99435.28
2023-03-06T21:01:46.828Z,99428.25
2023-03-06T21:04:16.048Z,99431.72
2023-03-06T21:06:47.231Z,99413.25
2023-03-06T21:09:17.551Z,99422.91
2023-03-06T21:11:46.080Z,99420.38
2023-03-06T21:14:14.385Z,99423.84
2023-03-06T21:16:44.411Z,99414.31
2023-03-06T21:19:12.547Z,99416.13
2023-03-06T21:21:40.583Z,99420.63
2023-03-06T21:24:08.907Z,99411.94
2023-03-06T21:26:36.986Z,99405.88
2023-03-06T21:29:05.250Z,99403.41
2023-03-06T21:31:34.066Z,99398.16
2023-03-06T21:34:04.651Z,99407.84
2023-03-06T21:36:33.160Z,99401.81
2023-03-06T21:39:01.450Z,99400.03
2023-03-06T21:41:30.636Z,99400.94
2023-03-06T21:44:02.226Z,99404.38
2023-03-06T21:46:30.438Z,99398.94
2023-03-06T21:48:58.881Z,99398.78
2023-03-06T21:51:27.298Z,99397.81
2023-03-06T21:53:55.817Z,99398.69
2023-03-06T21:56:25.743Z,99389.03
2023-03-06T21:58:55.289Z,99392.69
2023-03-06T22:01:26.512Z,99398.66
2023-03-06T22:03:54.885Z,99399.38
2023-03-06T22:06:26.594Z,99399.00
2023-03-06T22:08:58.991Z,99399.00
2023-03-06T22:11:31.190Z,99391.25
2023-03-06T22:13:59.250Z,99382.56
2023-03-06T22:16:27.128Z,99389.56
2023-03-06T22:18:55.246Z,99387.78
2023-03-06T22:21:24.148Z,99378.13
2023-03-06T22:23:57.535Z,99384.28
2023-03-06T22:26:28.515Z,99384.22
2023-03-06T22:28:56.845Z,99381.59
2023-03-06T22:31:28.390Z,99381.63
2023-03-06T22:33:57.971Z,99385.88
2023-03-06T22:36:27.723Z,99374.25
2023-03-06T22:39:00.771Z,99371.38
2023-03-06T22:41:28.806Z,99374.75
2023-03-06T22:43:59.272Z,99373.69
2023-03-06T22:46:28.091Z,99356.91
2023-03-06T22:48:57.861Z,99362.91
2023-03-06T22:51:27.086Z,99362.88
2023-03-06T22:53:55.528Z,99367.19
2023-03-06T22:56:23.734Z,99356.69
2023-03-06T22:58:52.008Z,99363.75
2023-03-06T23:01:26.392Z,99354.94
2023-03-06T23:03:57.336Z,99349.69
2023-03-06T23:06:30.477Z,99345.38
2023-03-06T23:09:05.753Z,99338.41
2023-03-06T23:11:52.259Z,99350.78
2023-03-06T23:14:39.280Z,99343.84
2023-03-06T23:17:25.505Z,99346.44
2023-03-06T23:20:13.375Z,99338.66
2023-03-06T23:23:00.131Z,99343.88
2023-03-06T23:25:43.797Z,99333.25
2023-03-06T23:28:15.069Z,99326.91
2023-03-06T23:30:43.376Z,99324.25
2023-03-06T23:33:11.963Z,99324.94
2023-03-06T23:35:40.073Z,99320.44
2023-03-06T23:38:08.080Z,99317.69
2023-03-06T23:40:38.529Z,99316.69
2023-03-06T23:43:06.766Z,99329.00
2023-03-06T23:45:34.800Z,99334.19
2023-03-06T23:48:05.798Z,99337.50
2023-03-06T23:50:33.565Z,99336.69
2023-03-06T23:53:01.276Z,99328.75
2023-03-06T23:55:29.090Z,99327.97
2023-03-06T23:57:57.078Z,99339.22
